Time;durP1;ratioP1;P1;durP2;ratioP2;P2;SDS_P1;SDS_P2;PMS_P1;PMS_P2;Temp;Humidity;BMP_temperature;BMP_pressure;BME280_temperature;BME280_humidity;BME280_pressure;Samples;Min_cycle;Max_cycle;Signal;HPM_P1;HPM_P2
2022/04/08 00:02:23;;;;;;;0.65;0.65;;;17.90;48.10;;;;;;5071836;28;48394;-18
2022/04/08 00:04:50;;;;;;;1.65;0.70;;;17.90;48.10;;;;;;5071570;28;47139;-18
2022/04/08 00:07:18;;;;;;;0.68;0.68;;;17.90;48.00;;;;;;5071773;28;47130;-18
2022/04/08 00:09:45;;;;;;;0.63;0.63;;;17.90;48.10;;;;;;5071577;28;47203;-18
2022/04/08 00:12:12;;;;;;;0.80;0.80;;;17.90;48.10;;;;;;5071488;28;46859;-18
2022/04/08 00:14:39;;;;;;;0.73;0.70;;;17.90;48.10;;;;;;5071406;28;47007;-18
2022/04/08 00:17:05;;;;;;;0.60;0.60;;;17.90;48.10;;;;;;5071665;28;46945;-18
2022/04/08 00:19:32;;;;;;;0.60;0.60;;;17.90;48.10;;;;;;5071331;28;47148;-17
2022/04/08 00:22:00;;;;;;;0.68;0.68;;;17.90;48.00;;;;;;5071339;28;48264;-17
2022/04/08 00:24:28;;;;;;;0.52;0.52;;;17.90;48.10;;;;;;5071105;28;46895;-18
2022/04/08 00:26:54;;;;;;;0.80;0.80;;;17.90;48.10;;;;;;5071314;28;46817;-18
2022/04/08 00:29:21;;;;;;;0.70;0.60;;;17.90;48.10;;;;;;5071407;28;46899;-17
2022/04/08 00:31:50;;;;;;;0.60;0.60;;;17.90;48.00;;;;;;5070962;28;47109;-18
2022/04/08 00:34:16;;;;;;;0.60;0.60;;;17.90;48.00;;;;;;5071394;28;47006;-18
2022/04/08 00:36:43;;;;;;;0.50;0.50;;;17.90;48.00;;;;;;5071211;28;46886;-18
2022/04/08 00:39:11;;;;;;;0.60;0.60;;;17.90;48.00;;;;;;5071285;28;46907;-18
2022/04/08 00:41:39;;;;;;;0.73;0.65;;;17.90;48.00;;;;;;5071297;28;47925;-18
2022/04/08 00:44:07;;;;;;;0.65;0.60;;;17.80;48.00;;;;;;5070979;28;46908;-18
2022/04/08 00:46:37;;;;;;;1.58;0.75;;;17.80;48.00;;;;;;5071033;28;46931;-17
2022/04/08 00:49:04;;;;;;;0.57;0.57;;;17.80;48.00;;;;;;5071130;28;46989;-17
2022/04/08 00:51:31;;;;;;;0.70;0.70;;;17.80;48.00;;;;;;5070929;28;48112;-17
2022/04/08 00:53:58;;;;;;;0.45;0.45;;;17.80;47.90;;;;;;5070619;28;46967;-18
2022/04/08 00:56:25;;;;;;;0.60;0.60;;;17.80;48.60;;;;;;5071005;28;46874;-18
2022/04/08 00:58:53;;;;;;;0.40;0.40;;;17.80;48.00;;;;;;5070963;28;47208;-18
2022/04/08 01:01:19;;;;;;;0.75;0.60;;;17.80;48.00;;;;;;5070507;28;49052;-18
2022/04/08 01:03:46;;;;;;;0.60;0.60;;;17.80;48.10;;;;;;5070973;28;46812;-18
2022/04/08 01:06:13;;;;;;;0.95;0.70;;;17.80;48.00;;;;;;5070792;28;46856;-17
2022/04/08 01:08:40;;;;;;;0.85;0.60;;;17.80;48.10;;;;;;5071037;28;46825;-18
2022/04/08 01:11:06;;;;;;;0.60;0.60;;;17.80;48.10;;;;;;5067464;28;47236;-17
2022/04/08 01:13:33;;;;;;;0.70;0.70;;;17.80;48.00;;;;;;5067017;28;47024;-18
2022/04/08 01:16:01;;;;;;;0.55;0.55;;;17.70;47.90;;;;;;5067117;28;46914;-17
2022/04/08 01:18:28;;;;;;;1.08;0.60;;;17.70;48.00;;;;;;5067611;28;47161;-17
2022/04/08 01:20:54;;;;;;;0.50;0.50;;;17.70;47.90;;;;;;5066980;28;48364;-18
2022/04/08 01:23:21;;;;;;;0.47;0.47;;;17.70;48.00;;;;;;5067487;28;47000;-18
2022/04/08 01:25:49;;;;;;;1.23;0.43;;;17.70;48.00;;;;;;5066833;28;46865;-18
2022/04/08 01:28:16;;;;;;;0.40;0.40;;;17.70;48.00;;;;;;5067534;28;47280;-18
2022/04/08 01:30:42;;;;;;;0.60;0.50;;;17.70;48.00;;;;;;5067496;28;48173;-18
2022/04/08 01:33:09;;;;;;;0.50;0.50;;;17.70;48.00;;;;;;5067269;28;46750;-18
2022/04/08 01:35:36;;;;;;;0.60;0.60;;;17.70;48.00;;;;;;5067525;28;46773;-18
2022/04/08 01:38:02;;;;;;;0.50;0.50;;;17.70;48.00;;;;;;5067619;28;46889;-18
2022/04/08 01:40:29;;;;;;;0.63;0.60;;;17.70;48.00;;;;;;5067117;28;48474;-18
2022/04/08 01:42:57;;;;;;;1.02;0.57;;;17.70;48.00;;;;;;5067285;28;46898;-18
2022/04/08 01:45:24;;;;;;;0.60;0.60;;;17.70;48.00;;;;;;5067116;28;46830;-18
2022/04/08 01:47:51;;;;;;;0.73;0.60;;;17.70;47.90;;;;;;5067113;28;46914;-18
2022/04/08 01:50:19;;;;;;;0.60;0.60;;;17.70;48.00;;;;;;5067004;28;48237;-18
2022/04/08 01:52:46;;;;;;;0.60;0.50;;;17.70;48.00;;;;;;5067347;28;47217;-18
2022/04/08 01:55:14;;;;;;;0.50;0.50;;;17.70;47.90;;;;;;5067336;28;46994;-18
2022/04/08 01:57:41;;;;;;;1.00;0.50;;;17.70;48.00;;;;;;5067023;28;47275;-19
2022/04/08 02:00:10;;;;;;;0.32;0.32;;;17.70;48.00;;;;;;5066835;28;48185;-18
2022/04/08 02:02:38;;;;;;;0.57;0.57;;;17.60;48.00;;;;;;5066794;28;47110;-17
2022/04/08 02:05:06;;;;;;;1.38;0.68;;;17.60;48.00;;;;;;5066797;28;47057;-18
2022/04/08 02:07:32;;;;;;;1.58;0.50;;;17.60;48.00;;;;;;5066725;28;46840;-18
2022/04/08 02:09:59;;;;;;;0.57;0.47;;;17.60;48.00;;;;;;5066611;28;49051;-18
2022/04/08 02:12:26;;;;;;;1.48;0.50;;;17.60;48.00;;;;;;5066947;28;46875;-18
2022/04/08 02:14:54;;;;;;;0.57;0.50;;;17.60;48.00;;;;;;5066972;28;46930;-18
2022/04/08 02:17:25;;;;;;;0.70;0.50;;;17.60;48.00;;;;;;5066935;28;46928;-18
2022/04/08 02:19:52;;;;;;;0.55;0.50;;;17.60;48.10;;;;;;5066823;28;48861;-18
2022/04/08 02:22:18;;;;;;;0.52;0.50;;;17.50;48.10;;;;;;5066521;28;47505;-18
2022/04/08 02:24:46;;;;;;;0.65;0.50;;;17.50;48.00;;;;;;5066388;28;46963;-17
2022/04/08 02:27:13;;;;;;;0.60;0.50;;;17.50;48.10;;;;;;5066756;28;47181;-17
2022/04/08 02:29:40;;;;;;;0.82;0.70;;;17.50;48.20;;;;;;5066151;28;48097;-18
2022/04/08 02:32:09;;;;;;;0.40;0.40;;;17.50;48.10;;;;;;5066261;28;47415;-18
2022/04/08 02:34:37;;;;;;;0.50;0.50;;;17.50;48.00;;;;;;5066528;28;46795;-18
2022/04/08 02:37:05;;;;;;;0.63;0.63;;;17.50;48.00;;;;;;5066843;28;47251;-17
2022/04/08 02:39:31;;;;;;;0.50;0.50;;;17.50;48.10;;;;;;5066006;28;48948;-18
2022/04/08 02:41:58;;;;;;;0.40;0.40;;;17.50;48.10;;;;;;5066456;28;46914;-18
2022/04/08 02:44:25;;;;;;;0.93;0.60;;;17.50;48.10;;;;;;5066010;28;46811;-17
2022/04/08 02:46:51;;;;;;;0.40;0.40;;;17.50;48.10;;;;;;5066146;28;46961;-17
2022/04/08 02:49:18;;;;;;;0.45;0.45;;;17.50;48.10;;;;;;5065820;28;47018;-17
2022/04/08 02:51:46;;;;;;;0.52;0.50;;;17.50;48.00;;;;;;5066004;28;47490;-17
2022/04/08 02:54:15;;;;;;;0.50;0.50;;;17.50;48.10;;;;;;5065845;28;46902;-17
2022/04/08 02:56:41;;;;;;;0.50;0.47;;;17.50;48.00;;;;;;5066230;28;47042;-17
2022/04/08 02:59:08;;;;;;;2.10;0.40;;;17.40;47.90;;;;;;5066050;28;48025;-18
2022/04/08 03:01:35;;;;;;;0.50;0.50;;;17.50;47.90;;;;;;5066113;28;46974;-18
2022/04/08 03:04:02;;;;;;;0.52;0.43;;;17.50;47.90;;;;;;5066004;28;46961;-18
2022/04/08 03:06:28;;;;;;;0.57;0.50;;;17.50;48.00;;;;;;5065853;28;46962;-18
2022/04/08 03:08:56;;;;;;;1.25;0.70;;;17.50;48.00;;;;;;5065862;28;46864;-17
2022/04/08 03:11:23;;;;;;;0.52;0.50;;;17.40;48.00;;;;;;5065706;28;46800;-17
2022/04/08 03:13:50;;;;;;;0.45;0.45;;;17.40;48.00;;;;;;5065948;28;46865;-17
2022/04/08 03:16:16;;;;;;;1.80;0.60;;;17.40;48.00;;;;;;5065599;28;47305;-17
2022/04/08 03:18:46;;;;;;;0.80;0.40;;;17.40;48.00;;;;;;5065683;28;48100;-18
2022/04/08 03:21:12;;;;;;;0.50;0.50;;;17.40;48.00;;;;;;5065369;28;46902;-18
2022/04/08 03:23:39;;;;;;;0.40;0.40;;;17.40;48.00;;;;;;5065845;28;46924;-18
2022/04/08 03:26:07;;;;;;;0.85;0.52;;;17.40;48.00;;;;;;5065421;28;47288;-17
2022/04/08 03:28:34;;;;;;;1.83;0.80;;;17.40;48.00;;;;;;5065215;28;48741;-17
2022/04/08 03:31:01;;;;;;;0.57;0.55;;;17.40;48.00;;;;;;5065492;28;47435;-17
2022/04/08 03:33:28;;;;;;;0.47;0.47;;;17.40;48.00;;;;;;5064682;28;46859;-18
2022/04/08 03:35:55;;;;;;;1.08;0.60;;;17.40;48.00;;;;;;5065696;28;46943;-18
2022/04/08 03:38:21;;;;;;;1.27;0.70;;;17.40;48.00;;;;;;5065417;28;49099;-18
2022/04/08 03:40:48;;;;;;;1.58;0.50;;;17.40;48.10;;;;;;5065211;28;47567;-18
2022/04/08 03:43:18;;;;;;;0.60;0.60;;;17.40;48.00;;;;;;5065192;28;46802;-17
2022/04/08 03:45:45;;;;;;;0.60;0.60;;;17.40;48.00;;;;;;5065483;28;46982;-17
2022/04/08 03:48:11;;;;;;;0.93;0.60;;;17.40;48.00;;;;;;5065354;28;48872;-17
2022/04/08 03:50:38;;;;;;;1.15;0.60;;;17.40;48.60;;;;;;5065043;28;47109;-17
2022/04/08 03:53:06;;;;;;;0.40;0.40;;;17.40;48.00;;;;;;5065115;28;46745;-18
2022/04/08 03:55:33;;;;;;;0.90;0.40;;;17.40;48.00;;;;;;5065529;28;46820;-17
2022/04/08 03:58:00;;;;;;;0.50;0.50;;;17.30;48.00;;;;;;5065382;28;48904;-17
2022/04/08 04:00:28;;;;;;;0.65;0.60;;;17.30;48.10;;;;;;5064789;28;46831;-18
2022/04/08 04:02:55;;;;;;;1.27;0.60;;;17.30;48.10;;;;;;5065010;28;47002;-18
2022/04/08 04:05:21;;;;;;;0.55;0.55;;;17.30;48.10;;;;;;5065327;28;46899;-18
2022/04/08 04:07:48;;;;;;;0.50;0.50;;;17.30;48.00;;;;;;5064786;28;47136;-18
2022/04/08 04:10:15;;;;;;;0.70;0.50;;;17.30;48.00;;;;;;5064574;28;47435;-18
2022/04/08 04:12:42;;;;;;;0.55;0.50;;;17.30;48.00;;;;;;5064857;28;46968;-18
2022/04/08 04:15:09;;;;;;;0.57;0.50;;;17.30;47.90;;;;;;5064988;28;47006;-18
2022/04/08 04:17:37;;;;;;;0.35;0.32;;;17.30;48.00;;;;;;5064622;28;48599;-18
2022/04/08 04:20:05;;;;;;;1.30;0.60;;;17.30;47.90;;;;;;5064759;28;46812;-18
2022/04/08 04:22:32;;;;;;;0.55;0.40;;;17.30;48.00;;;;;;5064946;28;46828;-18
2022/04/08 04:24:59;;;;;;;1.08;0.50;;;17.30;48.00;;;;;;5064899;28;47246;-17
2022/04/08 04:27:25;;;;;;;1.05;0.57;;;17.30;48.00;;;;;;5064808;28;46902;-17
2022/04/08 04:29:52;;;;;;;0.38;0.38;;;17.30;47.90;;;;;;5064520;28;46800;-18
2022/04/08 04:32:19;;;;;;;2.15;0.70;;;17.30;48.00;;;;;;5064713;28;46922;-18
2022/04/08 04:34:47;;;;;;;0.68;0.60;;;17.30;48.00;;;;;;5064904;28;47048;-18
2022/04/08 04:37:14;;;;;;;0.90;0.50;;;17.30;48.10;;;;;;5063962;28;49262;-18
2022/04/08 04:39:40;;;;;;;0.60;0.50;;;17.20;48.00;;;;;;5064616;28;46840;-18
2022/04/08 04:42:08;;;;;;;1.30;0.50;;;17.30;48.10;;;;;;5064724;28;47006;-18
2022/04/08 04:44:34;;;;;;;1.27;0.70;;;17.30;48.10;;;;;;5064481;28;46949;-17
2022/04/08 04:47:01;;;;;;;0.50;0.50;;;17.30;48.00;;;;;;5067426;28;49078;-18
2022/04/08 04:49:28;;;;;;;0.98;0.60;;;17.20;48.00;;;;;;5067710;28;47196;-18
2022/04/08 04:51:56;;;;;;;0.40;0.40;;;17.20;48.10;;;;;;5067817;28;46871;-18
2022/04/08 04:54:23;;;;;;;0.95;0.60;;;17.20;48.10;;;;;;5067910;28;47050;-18
2022/04/08 04:56:49;;;;;;;0.40;0.40;;;17.20;48.10;;;;;;5067712;28;49132;-18
2022/04/08 04:59:16;;;;;;;1.10;0.57;;;17.20;48.10;;;;;;5067624;28;47029;-18
2022/04/08 05:01:43;;;;;;;0.55;0.52;;;17.20;48.10;;;;;;5068030;28;46866;-17
2022/04/08 05:04:09;;;;;;;1.10;0.55;;;17.20;48.10;;;;;;5068193;28;47262;-17
2022/04/08 05:06:36;;;;;;;0.65;0.60;;;17.20;48.10;;;;;;5067809;28;46812;-17
2022/04/08 05:09:05;;;;;;;1.40;0.50;;;17.20;48.10;;;;;;5067752;28;46909;-17
2022/04/08 05:11:32;;;;;;;0.30;0.30;;;17.20;48.00;;;;;;5067508;28;46874;-17
2022/04/08 05:14:00;;;;;;;0.50;0.47;;;17.20;48.00;;;;;;5067706;28;46917;-17
2022/04/08 05:16:27;;;;;;;1.38;0.70;;;17.20;48.00;;;;;;5067591;28;48149;-17
2022/04/08 05:18:53;;;;;;;2.03;0.68;;;17.20;48.10;;;;;;5067594;28;46834;-17
2022/04/08 05:21:20;;;;;;;0.57;0.40;;;17.20;48.10;;;;;;5067498;28;47141;-17
2022/04/08 05:23:47;;;;;;;1.00;0.55;;;17.20;48.10;;;;;;5067837;28;46890;-17
2022/04/08 05:26:15;;;;;;;1.08;0.70;;;17.20;48.00;;;;;;5067033;28;47116;-18
2022/04/08 05:28:42;;;;;;;1.10;0.50;;;17.20;48.10;;;;;;5067351;28;46917;-18
2022/04/08 05:31:08;;;;;;;1.75;0.40;;;17.20;48.10;;;;;;5067206;28;46931;-18
2022/04/08 05:33:35;;;;;;;0.50;0.30;;;17.20;48.00;;;;;;5067404;28;46871;-18
2022/04/08 05:36:02;;;;;;;0.45;0.35;;;17.20;48.10;;;;;;5067257;28;48859;-17
2022/04/08 05:38:28;;;;;;;0.60;0.47;;;17.20;48.10;;;;;;5067100;28;46843;-17
2022/04/08 05:40:55;;;;;;;1.05;0.50;;;17.20;48.20;;;;;;5067064;28;46883;-18
2022/04/08 05:43:23;;;;;;;0.55;0.50;;;17.20;48.10;;;;;;5067256;28;47088;-18
2022/04/08 05:45:50;;;;;;;0.50;0.50;;;17.20;48.10;;;;;;5066512;28;48153;-18
2022/04/08 05:48:17;;;;;;;1.63;0.73;;;17.20;48.10;;;;;;5067216;28;47179;-18
2022/04/08 05:50:43;;;;;;;0.55;0.55;;;17.20;48.10;;;;;;5067016;28;46977;-19
2022/04/08 05:53:10;;;;;;;0.75;0.57;;;17.20;48.00;;;;;;5066805;28;46899;-19
2022/04/08 05:55:37;;;;;;;0.80;0.50;;;17.20;48.10;;;;;;5066997;28;48873;-19
2022/04/08 05:58:05;;;;;;;0.52;0.52;;;17.20;48.10;;;;;;5066383;28;47080;-19
2022/04/08 06:00:35;;;;;;;0.63;0.50;;;17.20;48.10;;;;;;5066608;28;46980;-19
2022/04/08 06:03:02;;;;;;;0.43;0.40;;;17.10;48.10;;;;;;5066849;28;47042;-18
2022/04/08 06:05:29;;;;;;;0.82;0.50;;;17.20;48.10;;;;;;5064573;28;48765;-19
2022/04/08 06:07:56;;;;;;;1.05;0.60;;;17.10;48.10;;;;;;5070223;28;46958;-19
2022/04/08 06:10:24;;;;;;;1.08;0.63;;;17.10;48.00;;;;;;5065708;28;46986;-20
2022/04/08 06:12:50;;;;;;;1.27;0.52;;;17.10;48.10;;;;;;5065887;28;46948;-18
2022/04/08 06:15:17;;;;;;;0.68;0.43;;;17.10;48.10;;;;;;5065895;28;47050;-19
2022/04/08 06:17:46;;;;;;;1.00;0.70;;;17.10;48.10;;;;;;5066339;28;47442;-19
2022/04/08 06:20:15;;;;;;;0.43;0.40;;;17.20;48.10;;;;;;5065655;28;46779;-20
2022/04/08 06:22:41;;;;;;;0.65;0.47;;;17.10;48.10;;;;;;5065329;28;47097;-18
2022/04/08 06:25:09;;;;;;;1.02;0.50;;;17.10;48.10;;;;;;5066173;28;48870;-18
2022/04/08 06:27:35;;;;;;;0.50;0.50;;;17.10;48.10;;;;;;5065893;28;47336;-17
2022/04/08 06:30:02;;;;;;;0.55;0.40;;;17.10;48.20;;;;;;5065818;28;46973;-19
2022/04/08 06:32:29;;;;;;;1.38;0.40;;;17.10;48.20;;;;;;5065977;28;46915;-20
2022/04/08 06:34:57;;;;;;;0.43;0.43;;;17.10;48.10;;;;;;5060456;28;46836;-19
2022/04/08 06:37:27;;;;;;;0.95;0.50;;;17.10;48.10;;;;;;5064868;28;47028;-19
2022/04/08 06:39:54;;;;;;;0.95;0.50;;;17.10;48.70;;;;;;5065861;28;46896;-19
2022/04/08 06:42:21;;;;;;;0.73;0.60;;;17.10;48.10;;;;;;5065241;28;47208;-19
2022/04/08 06:44:48;;;;;;;1.27;0.63;;;17.10;48.20;;;;;;5065622;28;47868;-19
2022/04/08 06:47:14;;;;;;;1.08;0.57;;;17.10;48.00;;;;;;5065702;28;46926;-19
2022/04/08 06:49:44;;;;;;;0.75;0.40;;;17.10;48.10;;;;;;5066132;28;46990;-19
2022/04/08 06:52:12;;;;;;;0.40;0.40;;;17.10;48.10;;;;;;5066101;28;46895;-19
2022/04/08 06:54:39;;;;;;;0.40;0.40;;;17.10;48.10;;;;;;5065441;28;49059;-19
2022/04/08 06:57:07;;;;;;;0.80;0.50;;;17.10;48.10;;;;;;5066054;28;46993;-18
2022/04/08 06:59:33;;;;;;;1.00;0.43;;;17.10;48.10;;;;;;5066047;28;46879;-19
2022/04/08 07:02:00;;;;;;;0.68;0.45;;;17.00;48.10;;;;;;5065805;28;47156;-19
2022/04/08 07:04:27;;;;;;;0.80;0.70;;;17.10;48.10;;;;;;5064896;28;47839;-19
2022/04/08 07:06:54;;;;;;;1.20;0.60;;;17.10;48.20;;;;;;5065293;28;47448;-19
2022/04/08 07:09:22;;;;;;;0.40;0.40;;;17.10;48.20;;;;;;5063662;28;46878;-19
2022/04/08 07:11:48;;;;;;;1.45;0.73;;;17.10;48.20;;;;;;5064870;28;47282;-19
2022/04/08 07:14:15;;;;;;;0.95;0.50;;;17.10;48.20;;;;;;5065043;28;47048;-19
2022/04/08 07:16:43;;;;;;;2.22;0.50;;;17.00;48.10;;;;;;5065366;28;46789;-18
2022/04/08 07:19:11;;;;;;;0.60;0.50;;;17.10;48.20;;;;;;5065733;28;46907;-18
2022/04/08 07:21:38;;;;;;;0.85;0.50;;;17.00;48.10;;;;;;5065379;28;46860;-19
2022/04/08 07:24:05;;;;;;;0.73;0.45;;;17.00;48.10;;;;;;5065332;28;47073;-19
2022/04/08 07:26:33;;;;;;;1.98;0.80;;;17.10;48.10;;;;;;5065246;28;46934;-19
2022/04/08 07:29:00;;;;;;;0.50;0.50;;;17.10;48.10;;;;;;5065481;28;46819;-19
2022/04/08 07:31:27;;;;;;;1.08;0.60;;;17.10;48.10;;;;;;5065786;28;47113;-18
2022/04/08 07:33:54;;;;;;;1.00;0.40;;;17.00;48.10;;;;;;5065010;28;47097;-19
2022/04/08 07:36:21;;;;;;;0.82;0.40;;;17.00;48.10;;;;;;5064884;28;47113;-14
2022/04/08 07:38:49;;;;;;;0.57;0.57;;;17.00;47.90;;;;;;5062442;28;47817;-15
2022/04/08 07:41:16;;;;;;;0.32;0.32;;;17.00;47.70;;;;;;5048454;28;46817;-19
2022/04/08 07:43:44;;;;;;;0.57;0.40;;;17.10;48.10;;;;;;5064389;28;49032;-19
2022/04/08 07:46:11;;;;;;;1.02;0.32;;;17.10;48.00;;;;;;5050876;28;46950;-19
2022/04/08 07:48:38;;;;;;;0.60;0.60;;;17.00;47.90;;;;;;5063953;28;46895;-19
2022/04/08 07:51:06;;;;;;;0.63;0.50;;;17.00;48.10;;;;;;5065049;28;47212;-19
2022/04/08 07:53:33;;;;;;;1.38;0.60;;;17.00;48.00;;;;;;5063942;28;47096;-19
2022/04/08 07:56:00;;;;;;;0.43;0.43;;;17.10;48.00;;;;;;5064255;28;46990;-19
2022/04/08 07:58:26;;;;;;;1.35;0.50;;;17.10;48.00;;;;;;5064281;28;47007;-19
2022/04/08 08:00:55;;;;;;;0.77;0.60;;;17.10;48.00;;;;;;5065032;28;46885;-19
2022/04/08 08:03:21;;;;;;;1.00;0.52;;;17.10;48.00;;;;;;5064489;28;49069;-18
2022/04/08 08:05:51;;;;;;;0.80;0.50;;;17.10;48.00;;;;;;5064026;28;47011;-18
2022/04/08 08:08:18;;;;;;;0.50;0.50;;;17.10;47.90;;;;;;5068596;28;47203;-19
2022/04/08 08:10:45;;;;;;;0.45;0.25;;;17.10;48.10;;;;;;5065097;28;47272;-19
2022/04/08 08:13:12;;;;;;;0.70;0.65;;;17.10;48.10;;;;;;5057661;28;48131;-19
2022/04/08 08:15:41;;;;;;;1.42;0.70;;;17.10;48.00;;;;;;5059888;28;47094;-19
2022/04/08 08:18:09;;;;;;;1.02;0.75;;;17.10;48.00;;;;;;5062436;28;46947;-19
2022/04/08 08:20:37;;;;;;;0.50;0.50;;;17.10;48.00;;;;;;5064073;28;47128;-19
2022/04/08 08:23:06;;;;;;;0.52;0.50;;;17.10;48.00;;;;;;5061214;28;47121;-20
2022/04/08 08:25:33;;;;;;;1.33;0.70;;;17.10;47.90;;;;;;5050107;28;46917;-20
2022/04/08 08:28:01;;;;;;;0.45;0.40;;;17.20;48.10;;;;;;5056662;28;47124;-19
2022/04/08 08:30:30;;;;;;;0.82;0.55;;;17.20;48.00;;;;;;5053667;28;47311;-19
2022/04/08 08:32:58;;;;;;;0.60;0.50;;;17.20;48.30;;;;;;5070525;28;47850;-19
2022/04/08 08:35:26;;;;;;;1.38;0.50;;;17.20;48.40;;;;;;5069585;28;46966;-20
2022/04/08 08:37:53;;;;;;;3.30;0.75;;;17.30;48.60;;;;;;5067521;28;46939;-19
2022/04/08 08:40:20;;;;;;;0.82;0.50;;;17.30;48.50;;;;;;5068247;28;47243;-18
2022/04/08 08:42:47;;;;;;;1.67;0.70;;;17.30;48.50;;;;;;5067546;28;47901;-18
2022/04/08 08:45:14;;;;;;;0.60;0.57;;;17.30;48.50;;;;;;5064709;28;46962;-19
2022/04/08 08:47:43;;;;;;;1.95;0.70;;;17.40;48.60;;;;;;5057725;28;46833;-19
2022/04/08 08:50:10;;;;;;;0.82;0.70;;;17.40;48.30;;;;;;5060678;28;47646;-20
2022/04/08 08:52:38;;;;;;;2.58;0.68;;;17.40;48.60;;;;;;5075510;28;47129;-19
2022/04/08 08:55:06;;;;;;;1.38;0.65;;;17.50;48.50;;;;;;5063662;28;46895;-18
2022/04/08 08:57:34;;;;;;;1.92;0.50;;;17.40;48.70;;;;;;5070769;28;46895;-19
2022/04/08 09:00:06;;;;;;;0.57;0.57;;;17.40;48.80;;;;;;5062364;28;46835;-19
2022/04/08 09:02:35;;;;;;;0.60;0.52;;;17.40;49.00;;;;;;5048701;28;47869;-19
2022/04/08 09:05:12;;;;;;;0.65;0.65;;;17.40;48.80;;;;;;5055952;28;47728;-19
2022/04/08 09:07:40;;;;;;;2.50;0.50;;;17.40;48.90;;;;;;5046069;28;47255;-19
2022/04/08 09:10:08;;;;;;;1.02;0.65;;;17.50;49.00;;;;;;5048383;28;47302;-19
2022/04/08 09:12:34;;;;;;;0.90;0.60;;;17.50;49.00;;;;;;5064783;28;47827;-19
2022/04/08 09:15:02;;;;;;;1.27;0.50;;;17.50;48.90;;;;;;5065849;28;46922;-19
2022/04/08 09:17:29;;;;;;;0.60;0.52;;;17.50;48.90;;;;;;5067504;28;46926;-19
2022/04/08 09:19:56;;;;;;;0.60;0.60;;;17.50;48.80;;;;;;5065163;28;46915;-19
2022/04/08 09:22:27;;;;;;;1.88;0.45;;;17.50;48.80;;;;;;5058263;28;46955;-15
2022/04/08 09:24:55;;;;;;;1.65;0.70;;;17.50;48.90;;;;;;5056472;28;46907;-16
2022/04/08 09:27:32;;;;;;;0.60;0.60;;;17.50;48.80;;;;;;5060932;28;47023;-15
2022/04/08 09:29:59;;;;;;;0.60;0.60;;;17.50;48.70;;;;;;5044426;28;46892;-15
2022/04/08 09:32:28;;;;;;;0.50;0.50;;;17.50;48.50;;;;;;5066072;28;47925;-16
2022/04/08 09:34:55;;;;;;;0.85;0.40;;;17.50;48.80;;;;;;5061245;28;46986;-14
2022/04/08 09:37:22;;;;;;;0.38;0.38;;;17.60;48.80;;;;;;5061933;28;46997;-14
2022/04/08 09:39:57;;;;;;;0.90;0.50;;;17.60;49.50;;;;;;5058611;28;47516;-16
2022/04/08 09:42:24;;;;;;;0.88;0.70;;;17.60;48.70;;;;;;5059972;28;48487;-14
2022/04/08 09:44:51;;;;;;;1.73;0.60;;;17.60;48.80;;;;;;5066784;28;46954;-16
2022/04/08 09:47:18;;;;;;;0.60;0.50;;;17.60;48.80;;;;;;5065373;28;47042;-15
2022/04/08 09:49:45;;;;;;;1.48;0.50;;;17.60;48.80;;;;;;5082117;28;46978;-15
2022/04/08 09:52:11;;;;;;;1.02;0.60;;;17.60;48.80;;;;;;5059314;28;48265;-15
2022/04/08 09:54:41;;;;;;;0.68;0.60;;;17.60;48.90;;;;;;5072131;28;46969;-14
2022/04/08 09:57:16;;;;;;;0.75;0.50;;;17.50;48.70;;;;;;5077209;28;46916;-15
2022/04/08 09:59:42;;;;;;;1.00;0.60;;;17.60;48.80;;;;;;5066964;28;47024;-15
2022/04/08 10:02:09;;;;;;;1.13;0.65;;;17.60;49.10;;;;;;5066394;28;47946;-14
2022/04/08 10:04:36;;;;;;;0.63;0.50;;;17.60;48.90;;;;;;5070491;28;46789;-15
2022/04/08 10:07:05;;;;;;;1.23;0.52;;;17.60;48.90;;;;;;5064383;28;47002;-14
2022/04/08 10:09:33;;;;;;;0.43;0.43;;;17.60;48.70;;;;;;5063793;28;48578;-15
2022/04/08 10:12:03;;;;;;;0.50;0.45;;;17.60;48.90;;;;;;5080970;28;48910;-14
2022/04/08 10:14:38;;;;;;;0.57;0.40;;;17.60;48.90;;;;;;5060160;28;46935;-14
2022/04/08 10:17:05;;;;;;;0.68;0.40;;;17.60;48.90;;;;;;5072820;28;46994;-14
2022/04/08 10:19:32;;;;;;;0.32;0.32;;;17.60;48.90;;;;;;5071219;28;47097;-14
2022/04/08 10:22:00;;;;;;;0.40;0.40;;;17.60;49.10;;;;;;5065383;28;46904;-14
2022/04/08 10:24:27;;;;;;;0.43;0.43;;;17.60;49.20;;;;;;5082812;28;47487;-14
2022/04/08 10:27:00;;;;;;;1.05;0.60;;;17.60;49.10;;;;;;5055043;28;46894;-14
2022/04/08 10:29:26;;;;;;;1.63;0.60;;;17.60;49.10;;;;;;5066583;28;47292;-14
2022/04/08 10:31:58;;;;;;;0.45;0.45;;;17.60;49.00;;;;;;5080487;28;48179;-14
2022/04/08 10:34:26;;;;;;;0.70;0.60;;;17.60;49.30;;;;;;5069616;28;46894;-15
2022/04/08 10:36:53;;;;;;;0.43;0.43;;;17.60;49.10;;;;;;5080741;28;46959;-14
2022/04/08 10:39:21;;;;;;;1.65;0.50;;;17.60;49.20;;;;;;5069365;28;47291;-14
2022/04/08 10:41:48;;;;;;;0.85;0.40;;;17.60;49.10;;;;;;5065969;28;47061;-16
2022/04/08 10:44:15;;;;;;;0.25;0.22;;;17.60;49.30;;;;;;5063431;28;46900;-15
2022/04/08 10:46:49;;;;;;;0.90;0.60;;;17.60;50.10;;;;;;5070125;28;46749;-16
2022/04/08 10:49:17;;;;;;;0.30;0.30;;;17.60;49.40;;;;;;5077003;28;47275;-14
2022/04/08 10:51:45;;;;;;;0.57;0.57;;;17.60;49.20;;;;;;5065369;28;47885;-14
2022/04/08 10:54:12;;;;;;;0.30;0.30;;;17.60;49.20;;;;;;5065553;28;46961;-13
2022/04/08 10:56:39;;;;;;;0.47;0.38;;;17.60;49.20;;;;;;5048911;28;46994;-13
2022/04/08 10:59:06;;;;;;;0.98;0.50;;;17.70;49.40;;;;;;5069742;28;46940;-14
2022/04/08 11:01:35;;;;;;;0.63;0.50;;;17.60;49.40;;;;;;5056705;28;47070;-14
2022/04/08 11:04:03;;;;;;;1.30;0.50;;;17.70;49.20;;;;;;5060462;28;46986;-15
2022/04/08 11:06:32;;;;;;;0.50;0.50;;;17.60;49.30;;;;;;5079451;28;46910;-15
2022/04/08 11:09:04;;;;;;;0.50;0.50;;;17.60;49.30;;;;;;5063308;28;46960;-14
2022/04/08 11:11:32;;;;;;;0.50;0.50;;;17.70;49.30;;;;;;5056120;28;49088;-14
2022/04/08 11:13:59;;;;;;;0.93;0.50;;;17.70;49.20;;;;;;5065319;28;47529;-14
2022/04/08 11:16:28;;;;;;;0.50;0.50;;;17.70;49.30;;;;;;5066339;28;47004;-14
2022/04/08 11:18:55;;;;;;;0.50;0.38;;;17.70;49.50;;;;;;5065412;28;46816;-14
2022/04/08 11:21:23;;;;;;;0.50;0.50;;;17.70;49.60;;;;;;5064462;28;47978;-14
2022/04/08 11:23:58;;;;;;;0.60;0.40;;;17.70;49.60;;;;;;5063479;28;47689;-15
2022/04/08 11:26:25;;;;;;;0.75;0.50;;;17.70;49.60;;;;;;5063922;28;46924;-14
2022/04/08 11:28:52;;;;;;;2.08;0.85;;;17.70;49.60;;;;;;5053528;28;47032;-15
2022/04/08 11:31:19;;;;;;;4.65;0.98;;;17.70;49.90;;;;;;5046444;28;48161;-14
2022/04/08 11:33:47;;;;;;;3.72;0.70;;;17.70;50.00;;;;;;5062447;28;47109;-14
2022/04/08 11:36:14;;;;;;;1.83;0.70;;;17.70;50.30;;;;;;5065561;28;46975;-14
2022/04/08 11:38:41;;;;;;;4.45;2.17;;;17.70;50.30;;;;;;5058153;28;46993;-14
2022/04/08 11:41:18;;;;;;;1.95;0.80;;;17.70;50.30;;;;;;5060290;28;48070;-15
2022/04/08 11:43:44;;;;;;;6.55;0.88;;;17.70;50.30;;;;;;5045394;28;47305;-14
2022/04/08 11:46:14;;;;;;;3.17;0.70;;;17.70;50.50;;;;;;5056440;28;47064;-14
2022/04/08 11:48:40;;;;;;;2.50;0.65;;;17.70;50.50;;;;;;5053821;28;47560;-14
2022/04/08 11:51:07;;;;;;;5.75;0.85;;;17.70;50.60;;;;;;5061109;28;48039;-15
2022/04/08 11:53:42;;;;;;;4.28;0.70;;;17.70;50.60;;;;;;5065612;28;47153;-14
2022/04/08 11:56:10;;;;;;;3.65;0.82;;;17.70;50.90;;;;;;5062719;28;47144;-14
2022/04/08 11:58:37;;;;;;;1.83;0.75;;;17.70;51.10;;;;;;5077011;28;47089;-14
2022/04/08 12:01:05;;;;;;;1.90;0.68;;;17.70;50.80;;;;;;5069353;28;48005;-14
2022/04/08 12:03:34;;;;;;;2.47;1.17;;;17.80;50.70;;;;;;5081268;28;46881;-14
2022/04/08 12:06:01;;;;;;;3.28;0.90;;;17.80;50.70;;;;;;5071800;28;46883;-14
2022/04/08 12:08:28;;;;;;;0.75;0.52;;;17.80;50.60;;;;;;5069519;28;47176;-14
2022/04/08 12:10:56;;;;;;;2.13;0.70;;;17.80;50.60;;;;;;5064408;28;48214;-14
2022/04/08 12:13:25;;;;;;;5.72;0.57;;;17.80;50.60;;;;;;5066055;28;47014;-14
2022/04/08 12:15:55;;;;;;;2.05;0.80;;;17.80;50.70;;;;;;5079129;28;47049;-14
2022/04/08 12:18:22;;;;;;;2.65;0.70;;;17.80;50.70;;;;;;5061443;28;46885;-14
2022/04/08 12:20:53;;;;;;;0.65;0.65;;;17.80;50.50;;;;;;5065855;28;48783;-15
2022/04/08 12:23:21;;;;;;;3.63;1.10;;;17.80;50.50;;;;;;5073965;28;47129;-14
2022/04/08 12:25:52;;;;;;;6.68;1.27;;;17.80;50.50;;;;;;5064483;28;46959;-20
2022/04/08 12:28:23;;;;;;;2.65;0.80;;;17.80;50.30;;;;;;5063145;28;47304;-15
2022/04/08 12:30:51;;;;;;;0.75;0.70;;;17.80;50.40;;;;;;5063881;28;48287;-15
2022/04/08 12:33:18;;;;;;;3.50;1.02;;;17.80;50.50;;;;;;5065109;28;47090;-15
2022/04/08 12:35:45;;;;;;;0.70;0.70;;;17.80;50.50;;;;;;5063248;28;47125;-15
2022/04/08 12:38:14;;;;;;;2.00;0.70;;;17.80;50.50;;;;;;5060355;28;47008;-15
2022/04/08 12:40:41;;;;;;;0.50;0.50;;;17.80;50.40;;;;;;5063158;28;46961;-15
2022/04/08 12:43:09;;;;;;;1.10;0.70;;;17.80;50.40;;;;;;5062585;28;46865;-15
2022/04/08 12:45:36;;;;;;;1.90;0.80;;;17.80;50.40;;;;;;5062865;28;46925;-15
2022/04/08 12:48:05;;;;;;;2.88;0.70;;;17.80;50.30;;;;;;5060367;28;46906;-14
2022/04/08 12:50:32;;;;;;;0.50;0.50;;;17.80;50.40;;;;;;5064498;28;47055;-14